Time;durP1;ratioP1;P1;durP2;ratioP2;P2;SDS_P1;SDS_P2;PMS_P1;PMS_P2;Temp;Humidity;BMP_temperature;BMP_pressure;BME280_temperature;BME280_humidity;BME280_pressure;Samples;Min_cycle;Max_cycle;Signal;HPM_P1;HPM_P2
2022/09/24 00:01:29;;;;;;;4.68;3.55;;;13.30;82.10;;;;;;5053284;28;20013;-66
2022/09/24 00:04:01;;;;;;;3.28;2.97;;;13.40;82.20;;;;;;5050702;28;20032;-67
2022/09/24 00:06:32;;;;;;;4.07;3.30;;;13.30;82.20;;;;;;5050695;28;20048;-66
2022/09/24 00:08:58;;;;;;;3.58;3.10;;;13.30;82.10;;;;;;5048301;28;20494;-67
2022/09/24 00:11:26;;;;;;;4.00;2.80;;;13.40;82.80;;;;;;5074479;22;20040;-88
2022/09/24 00:13:53;;;;;;;4.13;3.35;;;13.40;82.00;;;;;;5032634;28;20083;-88
2022/09/24 00:16:20;;;;;;;4.65;3.85;;;13.40;82.00;;;;;;5034147;28;20116;-87
2022/09/24 00:18:46;;;;;;;5.05;4.03;;;13.40;81.80;;;;;;5030575;28;20029;-88
2022/09/24 00:21:22;;;;;;;4.25;3.50;;;13.40;81.80;;;;;;5034316;28;20027;-88
2022/09/24 00:23:53;;;;;;;4.35;3.40;;;13.40;81.90;;;;;;5034328;28;20021;-88
2022/09/24 00:29:04;;;;;;;4.13;3.50;;;13.40;81.90;;;;;;5049886;28;20094;-87
2022/09/24 00:31:30;;;;;;;4.85;4.25;;;13.40;81.90;;;;;;5035388;28;20442;-83
2022/09/24 00:33:57;;;;;;;5.85;4.65;;;13.40;82.00;;;;;;5036009;28;20454;-82
2022/09/24 00:36:23;;;;;;;4.95;4.00;;;13.40;81.90;;;;;;5036130;28;20029;-83
2022/09/24 00:38:50;;;;;;;5.68;4.10;;;13.30;81.90;;;;;;5035904;28;20100;-83
2022/09/24 00:41:18;;;;;;;6.38;5.25;;;13.30;82.00;;;;;;5034245;28;20037;-88
2022/09/24 00:43:47;;;;;;;4.55;4.00;;;13.30;82.10;;;;;;5035413;28;20423;-88
2022/09/24 00:46:27;;;;;;;5.03;4.32;;;13.20;82.10;;;;;;5051623;28;20330;-88
2022/09/24 00:49:00;;;;;;;5.55;4.25;;;13.20;82.20;;;;;;5033594;28;20466;-88
2022/09/24 00:51:29;;;;;;;5.95;4.55;;;13.10;82.40;;;;;;5033885;28;20024;-88
2022/09/24 00:54:00;;;;;;;5.65;4.25;;;13.10;82.40;;;;;;5033856;28;20021;-89
2022/09/24 00:56:27;;;;;;;5.60;4.57;;;13.10;82.60;;;;;;5050163;28;20017;-88
2022/09/24 00:58:56;;;;;;;6.05;4.93;;;13.00;82.60;;;;;;5020856;28;20036;-88
2022/09/24 01:01:23;;;;;;;6.20;5.32;;;13.10;82.60;;;;;;5032742;28;20426;-88
2022/09/24 01:03:52;;;;;;;6.00;4.53;;;13.00;82.60;;;;;;5051446;28;20032;-88
2022/09/24 01:06:17;;;;;;;7.03;5.60;;;13.00;82.80;;;;;;5033999;28;20032;-88
2022/09/24 01:08:44;;;;;;;6.15;4.60;;;13.00;82.80;;;;;;5034191;28;20025;-83
2022/09/24 01:11:46;;;;;;;5.45;4.63;;;12.90;82.80;;;;;;5038170;28;20390;-83
2022/09/24 01:14:31;;;;;;;7.38;5.38;;;12.90;82.90;;;;;;5027194;28;20037;-83
2022/09/24 01:17:03;;;;;;;6.25;4.78;;;12.80;82.90;;;;;;5033747;28;20021;-84
2022/09/24 01:19:55;;;;;;;5.82;4.90;;;12.80;83.10;;;;;;5053847;28;20104;-83
2022/09/24 01:22:34;;;;;;;;;;;12.80;83.10;;;;;;5036327;28;20035;-83
2022/09/24 01:25:02;;;;;;;5.90;4.85;;;12.70;83.10;;;;;;5035174;28;19905;-83
2022/09/24 01:27:51;;;;;;;5.72;4.30;;;12.70;83.20;;;;;;5035993;28;20025;-82
2022/09/24 01:30:16;;;;;;;4.53;3.97;;;12.60;83.20;;;;;;5023324;28;20021;-83
2022/09/24 01:32:56;;;;;;;5.72;4.50;;;12.60;83.50;;;;;;5035773;28;20076;-83
2022/09/24 01:35:33;;;;;;;5.15;4.15;;;12.60;83.60;;;;;;5033573;28;20117;-83
2022/09/24 01:38:08;;;;;;;6.35;4.65;;;12.60;83.60;;;;;;5036194;28;20079;-83
2022/09/24 01:40:35;;;;;;;5.07;4.10;;;12.60;83.60;;;;;;5041540;28;20078;-83
2022/09/24 01:43:04;;;;;;;5.00;4.03;;;12.60;83.70;;;;;;5039157;28;20121;-82
2022/09/24 01:45:30;;;;;;;5.03;4.07;;;12.60;83.80;;;;;;5038494;28;20025;-83
2022/09/24 01:47:59;;;;;;;4.63;4.00;;;12.60;83.70;;;;;;5055810;28;20103;-83
2022/09/24 01:50:28;;;;;;;4.90;4.10;;;12.60;83.80;;;;;;5038356;28;20107;-83
2022/09/24 01:53:00;;;;;;;5.05;4.05;;;12.60;83.80;;;;;;5039859;28;20033;-83
2022/09/24 01:55:31;;;;;;;3.50;3.20;;;12.60;83.70;;;;;;5039456;28;20028;-83
2022/09/24 01:58:26;;;;;;;3.38;3.08;;;12.60;83.90;;;;;;5035134;28;20114;-83
2022/09/24 02:01:01;;;;;;;3.80;3.40;;;12.60;83.70;;;;;;5038261;28;20032;-83
2022/09/24 02:03:30;;;;;;;4.70;3.88;;;12.60;83.80;;;;;;5057006;28;20162;-83
2022/09/24 02:06:09;;;;;;;5.28;3.70;;;12.60;83.70;;;;;;5037881;28;20021;-83
2022/09/24 02:08:44;;;;;;;4.13;3.70;;;12.60;83.60;;;;;;5057458;28;20548;-83
2022/09/24 02:11:13;;;;;;;4.28;3.45;;;12.60;83.70;;;;;;5042427;28;20025;-82
2022/09/24 02:14:07;;;;;;;5.50;4.50;;;12.60;83.70;;;;;;5056455;28;20103;-82
2022/09/24 02:16:44;;;;;;;4.28;3.60;;;12.60;83.50;;;;;;5038694;28;20025;-83
2022/09/24 02:19:14;;;;;;;4.45;3.80;;;12.60;83.70;;;;;;5021672;28;20105;-82
2022/09/24 02:21:41;;;;;;;4.20;3.60;;;12.60;83.70;;;;;;5033218;28;20037;-82
2022/09/24 02:24:34;;;;;;;3.50;3.15;;;12.60;83.80;;;;;;5037659;28;20025;-82
2022/09/24 02:27:00;;;;;;;4.90;3.75;;;12.60;83.80;;;;;;5033388;28;20112;-82
2022/09/24 02:29:25;;;;;;;4.47;3.78;;;12.60;83.90;;;;;;5038507;28;20053;-82
2022/09/24 02:31:55;;;;;;;4.47;3.40;;;12.60;83.90;;;;;;5038672;28;20060;-82
2022/09/24 02:34:35;;;;;;;4.53;3.72;;;12.60;83.90;;;;;;5056934;28;20025;-83
2022/09/24 02:37:05;;;;;;;4.75;3.92;;;12.70;83.80;;;;;;5032000;28;20025;-82
2022/09/24 02:39:31;;;;;;;5.10;4.03;;;12.70;83.80;;;;;;5031588;28;20032;-83
2022/09/24 02:41:58;;;;;;;5.20;4.13;;;12.70;83.80;;;;;;5039327;28;20033;-83
2022/09/24 02:44:24;;;;;;;4.47;3.72;;;12.70;83.80;;;;;;5038045;28;20021;-83
2022/09/24 02:46:49;;;;;;;5.70;4.35;;;12.70;83.70;;;;;;5056333;28;20392;-83
2022/09/24 02:49:16;;;;;;;6.13;4.90;;;12.70;83.80;;;;;;5056331;28;20543;-83
2022/09/24 02:51:43;;;;;;;5.40;4.07;;;12.70;83.70;;;;;;5036377;28;20470;-83
2022/09/24 02:54:09;;;;;;;5.68;4.38;;;12.70;83.70;;;;;;5055415;28;20021;-83
2022/09/24 02:56:35;;;;;;;5.38;4.40;;;12.70;83.80;;;;;;5036589;28;20021;-83
2022/09/24 02:59:01;;;;;;;5.57;4.20;;;12.70;83.70;;;;;;5037768;28;20021;-83
2022/09/24 03:01:28;;;;;;;6.88;5.38;;;12.70;83.70;;;;;;5037770;28;20021;-83
2022/09/24 03:03:54;;;;;;;6.57;5.20;;;12.80;83.70;;;;;;5036805;28;20471;-83
2022/09/24 03:06:19;;;;;;;5.85;4.97;;;12.80;83.70;;;;;;5037541;28;20074;-83
2022/09/24 03:08:46;;;;;;;6.13;4.72;;;12.70;83.60;;;;;;5036093;28;20025;-83
2022/09/24 03:11:12;;;;;;;6.35;4.93;;;12.80;83.80;;;;;;5036565;28;20017;-83
2022/09/24 03:13:38;;;;;;;6.43;4.70;;;12.80;83.80;;;;;;5035733;28;20056;-83
2022/09/24 03:16:05;;;;;;;5.85;4.32;;;12.80;83.90;;;;;;5037569;28;20031;-83
2022/09/24 03:18:32;;;;;;;5.50;4.18;;;12.90;83.80;;;;;;5029164;28;20039;-83
2022/09/24 03:21:00;;;;;;;4.07;3.65;;;12.90;83.60;;;;;;5037506;28;20116;-83
2022/09/24 03:23:26;;;;;;;4.68;3.88;;;12.90;83.50;;;;;;5037718;28;20029;-83
2022/09/24 03:25:52;;;;;;;5.22;4.10;;;13.00;83.40;;;;;;5035755;28;20043;-82
2022/09/24 03:28:18;;;;;;;4.90;4.07;;;13.00;83.40;;;;;;5054799;28;20484;-83
2022/09/24 03:31:00;;;;;;;4.68;3.22;;;13.10;83.30;;;;;;5054017;28;20021;-83
2022/09/24 03:33:34;;;;;;;5.15;4.05;;;13.10;83.30;;;;;;5036755;28;20094;-84
2022/09/24 03:36:14;;;;;;;4.03;3.47;;;13.10;83.10;;;;;;5053954;28;20496;-83
2022/09/24 03:38:41;;;;;;;4.63;3.85;;;13.10;83.70;;;;;;5037039;28;20471;-83
2022/09/24 03:41:08;;;;;;;4.90;3.80;;;13.10;83.10;;;;;;5036630;28;20131;-83
2022/09/24 03:43:34;;;;;;;5.00;3.80;;;13.10;83.00;;;;;;5037168;28;20028;-83
2022/09/24 03:46:00;;;;;;;4.80;4.07;;;13.10;83.00;;;;;;5036242;28;20024;-83
2022/09/24 03:48:26;;;;;;;3.67;3.33;;;13.10;82.90;;;;;;5035211;28;20059;-82
2022/09/24 03:50:53;;;;;;;5.07;3.85;;;13.10;83.00;;;;;;5035963;28;20388;-83
2022/09/24 03:53:19;;;;;;;4.90;3.70;;;13.10;83.10;;;;;;5036541;28;20036;-83
2022/09/24 03:55:54;;;;;;;4.43;3.70;;;13.10;83.10;;;;;;5054120;28;20086;-83
2022/09/24 03:58:20;;;;;;;4.18;3.47;;;13.10;83.10;;;;;;5036147;28;20025;-83
2022/09/24 04:00:45;;;;;;;4.05;3.42;;;13.10;83.10;;;;;;5036594;28;20020;-83
2022/09/24 04:03:11;;;;;;;4.63;3.92;;;13.10;83.20;;;;;;5031889;28;20375;-82
2022/09/24 04:05:37;;;;;;;3.88;3.38;;;13.20;83.10;;;;;;5034499;28;20167;-83
2022/09/24 04:08:06;;;;;;;4.30;3.78;;;13.20;82.90;;;;;;5036248;28;20103;-82
2022/09/24 04:10:32;;;;;;;4.68;3.97;;;13.20;83.00;;;;;;5034071;28;20081;-82
2022/09/24 04:12:58;;;;;;;5.18;4.15;;;13.10;83.00;;;;;;5046194;28;20126;-82
2022/09/24 04:15:24;;;;;;;3.92;3.30;;;13.20;83.00;;;;;;5035787;28;20029;-82
2022/09/24 04:17:57;;;;;;;5.40;3.78;;;13.10;83.10;;;;;;5049757;28;20044;-83
2022/09/24 04:20:28;;;;;;;4.22;3.75;;;13.10;83.10;;;;;;5032197;28;20033;-82
2022/09/24 04:22:55;;;;;;;4.57;3.55;;;13.20;83.30;;;;;;5054030;28;20021;-83
2022/09/24 04:25:22;;;;;;;5.18;4.05;;;13.10;83.20;;;;;;5053181;28;20028;-82
2022/09/24 04:27:53;;;;;;;3.95;3.40;;;13.10;83.10;;;;;;5053634;28;20028;-83
2022/09/24 04:30:19;;;;;;;;;;;13.20;83.10;;;;;;5036200;28;20041;-83
2022/09/24 04:32:44;;;;;;;4.43;3.63;;;13.20;82.90;;;;;;5035813;28;19908;-82
2022/09/24 04:35:10;;;;;;;4.47;3.60;;;13.10;83.00;;;;;;5030759;28;20036;-83
2022/09/24 04:37:36;;;;;;;4.10;3.38;;;13.10;82.90;;;;;;5030064;28;20032;-83
2022/09/24 04:40:04;;;;;;;4.18;3.63;;;13.10;83.00;;;;;;5053126;28;20104;-82
2022/09/24 04:42:30;;;;;;;4.15;3.60;;;13.10;82.90;;;;;;5035647;28;20120;-82
2022/09/24 04:44:55;;;;;;;5.57;4.10;;;13.10;83.00;;;;;;5035440;28;20093;-82
2022/09/24 04:47:23;;;;;;;4.07;3.35;;;13.10;83.60;;;;;;5035887;28;20079;-83
2022/09/24 04:49:48;;;;;;;4.63;3.70;;;13.10;83.00;;;;;;5036163;28;20021;-83
2022/09/24 04:52:14;;;;;;;5.50;4.43;;;13.10;83.00;;;;;;5034671;28;20124;-82
2022/09/24 04:54:45;;;;;;;4.90;3.88;;;13.10;82.90;;;;;;5035476;28;20060;-83
2022/09/24 04:57:13;;;;;;;4.70;3.42;;;13.10;82.90;;;;;;5035699;28;20480;-82
2022/09/24 04:59:39;;;;;;;5.00;3.90;;;13.10;83.10;;;;;;5035693;28;20032;-82
2022/09/24 05:02:07;;;;;;;4.03;3.55;;;13.10;83.10;;;;;;5034730;28;20028;-83
2022/09/24 05:04:35;;;;;;;4.88;3.70;;;13.20;83.10;;;;;;5036143;28;20021;-83
2022/09/24 05:07:00;;;;;;;4.28;3.70;;;13.20;83.20;;;;;;5035502;28;20032;-82
2022/09/24 05:09:26;;;;;;;3.97;3.58;;;13.20;83.20;;;;;;5033684;28;20025;-82
2022/09/24 05:11:51;;;;;;;3.75;3.28;;;13.20;83.00;;;;;;5052392;28;20373;-82
2022/09/24 05:14:17;;;;;;;4.13;3.58;;;13.30;83.10;;;;;;5054540;28;20484;-82
2022/09/24 05:16:43;;;;;;;4.30;3.63;;;13.30;83.10;;;;;;5038255;28;20560;-83
2022/09/24 05:19:08;;;;;;;4.88;4.13;;;13.30;83.00;;;;;;5032291;28;20044;-83
2022/09/24 05:21:34;;;;;;;5.30;4.00;;;13.30;82.90;;;;;;5030703;28;20044;-82
2022/09/24 05:24:00;;;;;;;4.18;3.47;;;13.30;82.90;;;;;;5038517;28;20451;-83
2022/09/24 05:29:10;;;;;;;3.88;3.47;;;13.30;83.00;;;;;;5044933;28;20021;-83
2022/09/24 05:31:35;;;;;;;5.60;3.80;;;13.40;83.00;;;;;;5033868;28;20025;-83
2022/09/24 05:34:02;;;;;;;4.07;3.53;;;13.40;82.90;;;;;;5057689;28;20028;-82
2022/09/24 05:36:28;;;;;;;5.18;3.88;;;13.50;83.00;;;;;;5055739;28;20383;-83
2022/09/24 05:38:54;;;;;;;4.28;3.72;;;13.50;82.90;;;;;;5039124;28;20085;-82
2022/09/24 05:41:20;;;;;;;5.57;4.50;;;13.50;82.80;;;;;;5037225;28;20059;-83
2022/09/24 05:43:46;;;;;;;5.03;3.92;;;13.50;82.90;;;;;;5038680;28;20029;-83
2022/09/24 05:46:12;;;;;;;5.90;4.43;;;13.50;82.90;;;;;;5039523;28;20395;-83
2022/09/24 05:48:38;;;;;;;5.47;4.70;;;13.50;82.90;;;;;;5038716;28;20017;-82
2022/09/24 05:51:04;;;;;;;4.07;3.67;;;13.50;82.80;;;;;;5038473;28;20108;-84
2022/09/24 05:53:30;;;;;;;5.18;4.05;;;13.50;82.70;;;;;;5039770;28;20074;-83
2022/09/24 05:55:57;;;;;;;6.30;3.58;;;13.50;83.00;;;;;;5038895;28;20025;-83
2022/09/24 05:58:23;;;;;;;5.25;4.20;;;13.50;83.10;;;;;;5052207;28;20029;-83
2022/09/24 06:00:50;;;;;;;4.28;3.63;;;13.50;83.10;;;;;;5035636;28;20029;-83
2022/09/24 06:03:17;;;;;;;5.13;4.00;;;13.60;83.00;;;;;;5035732;28;20021;-83
2022/09/24 06:05:48;;;;;;;4.88;4.22;;;13.60;82.90;;;;;;5034272;28;20025;-83
2022/09/24 06:08:15;;;;;;;4.43;4.03;;;13.60;82.50;;;;;;5039149;28;20513;-83
2022/09/24 06:10:44;;;;;;;5.78;4.47;;;13.60;82.50;;;;;;5054430;28;20108;-83
2022/09/24 06:13:10;;;;;;;5.22;4.65;;;13.60;82.50;;;;;;5047587;28;20084;-83
2022/09/24 06:15:41;;;;;;;6.53;4.75;;;13.70;82.30;;;;;;5039197;28;20078;-83
2022/09/24 06:18:07;;;;;;;4.07;3.47;;;13.60;82.20;;;;;;5038158;28;20529;-82
2022/09/24 06:20:33;;;;;;;5.35;4.50;;;13.60;82.50;;;;;;5056161;28;20265;-83
2022/09/24 06:22:59;;;;;;;4.90;3.65;;;13.60;82.50;;;;;;5056291;28;20036;-83
2022/09/24 06:25:26;;;;;;;5.00;3.70;;;13.60;82.60;;;;;;5036870;28;20021;-83
2022/09/24 06:27:59;;;;;;;4.25;3.80;;;13.60;82.60;;;;;;5037414;28;20032;-82
2022/09/24 06:30:26;;;;;;;4.00;3.60;;;13.70;82.70;;;;;;5038345;28;20432;-83
2022/09/24 06:32:52;;;;;;;4.25;3.70;;;13.70;82.50;;;;;;5037913;28;20088;-84
2022/09/24 06:35:19;;;;;;;4.95;3.78;;;13.70;82.60;;;;;;5034429;28;20025;-83
2022/09/24 06:37:44;;;;;;;3.67;3.33;;;13.80;82.60;;;;;;5038698;28;20119;-83
2022/09/24 06:40:10;;;;;;;5.68;4.70;;;13.80;82.70;;;;;;5037739;28;20459;-83
2022/09/24 06:42:37;;;;;;;5.50;4.15;;;13.90;82.40;;;;;;5038056;28;20052;-83
2022/09/24 06:45:03;;;;;;;4.90;4.10;;;14.00;82.40;;;;;;5056191;28;20533;-83
2022/09/24 06:47:29;;;;;;;4.47;3.97;;;14.00;82.40;;;;;;5038145;28;20488;-83
2022/09/24 06:49:54;;;;;;;4.53;3.60;;;14.00;82.20;;;;;;5037980;28;20040;-83
2022/09/24 06:52:22;;;;;;;4.25;3.83;;;14.00;82.30;;;;;;5037527;28;20495;-83
2022/09/24 06:54:47;;;;;;;5.72;4.25;;;14.00;82.30;;;;;;5025502;28;20025;-83
2022/09/24 06:57:14;;;;;;;5.60;4.43;;;14.10;82.30;;;;;;5037909;28;20029;-83
2022/09/24 06:59:40;;;;;;;5.78;5.03;;;14.10;81.90;;;;;;5043052;28;20480;-83
2022/09/24 07:02:09;;;;;;;5.15;4.32;;;14.10;81.80;;;;;;5037387;28;20036;-83
2022/09/24 07:04:34;;;;;;;5.13;4.20;;;14.10;81.50;;;;;;5036801;28;20387;-83
2022/09/24 07:09:47;;;;;;;4.78;3.88;;;14.10;81.70;;;;;;5055068;28;20082;-82
2022/09/24 07:12:13;;;;;;;4.80;4.20;;;14.20;81.80;;;;;;5048820;28;20052;-82
2022/09/24 07:14:38;;;;;;;5.20;4.70;;;14.20;81.60;;;;;;5037689;28;20033;-82
2022/09/24 07:17:04;;;;;;;6.00;4.95;;;14.20;81.40;;;;;;5036451;28;20032;-83
2022/09/24 07:19:30;;;;;;;5.65;4.70;;;14.20;81.30;;;;;;5033831;28;20434;-82
2022/09/24 07:21:56;;;;;;;5.30;4.72;;;14.20;81.40;;;;;;5036862;28;20032;-83
2022/09/24 07:24:22;;;;;;;5.35;4.70;;;14.20;81.30;;;;;;5056650;28;20041;-83
2022/09/24 07:26:48;;;;;;;4.82;4.25;;;14.10;81.10;;;;;;5052060;28;20028;-83
2022/09/24 07:29:14;;;;;;;5.15;4.60;;;14.20;81.30;;;;;;5037854;28;20025;-83
2022/09/24 07:31:39;;;;;;;6.05;4.63;;;14.10;81.40;;;;;;5055207;28;20059;-83
2022/09/24 07:34:08;;;;;;;5.05;3.88;;;14.20;81.40;;;;;;5032865;28;20396;-83
2022/09/24 07:36:34;;;;;;;4.85;4.30;;;14.20;81.50;;;;;;5034677;28;20068;-83
2022/09/24 07:39:00;;;;;;;7.10;5.20;;;14.20;81.40;;;;;;5037072;28;20475;-83
2022/09/24 07:41:26;;;;;;;5.45;4.75;;;14.20;81.20;;;;;;5036553;28;20103;-84
2022/09/24 07:43:53;;;;;;;5.35;4.72;;;14.20;81.10;;;;;;5037959;28;20036;-84
2022/09/24 07:46:20;;;;;;;4.78;4.07;;;14.20;81.10;;;;;;5036954;28;20100;-84
2022/09/24 07:48:48;;;;;;;4.57;3.90;;;14.20;81.10;;;;;;5033193;28;20025;-83
2022/09/24 07:51:15;;;;;;;5.13;4.53;;;14.20;81.20;;;;;;5036940;28;20017;-83
2022/09/24 07:53:40;;;;;;;5.13;4.40;;;14.20;81.40;;;;;;5037011;28;20028;-84
2022/09/24 07:56:06;;;;;;;5.20;4.00;;;14.30;81.10;;;;;;5034265;28;20039;-83
2022/09/24 07:58:32;;;;;;;5.20;4.38;;;14.30;80.90;;;;;;5036375;28;20566;-84
2022/09/24 08:00:58;;;;;;;4.35;3.80;;;14.40;81.10;;;;;;5037024;28;20390;-83
2022/09/24 08:03:24;;;;;;;5.30;4.43;;;14.40;81.20;;;;;;5031882;28;20082;-83
2022/09/24 08:05:55;;;;;;;5.57;4.90;;;14.50;81.20;;;;;;5035652;28;20056;-83
2022/09/24 08:08:20;;;;;;;5.53;5.03;;;14.50;80.60;;;;;;5025025;28;20560;-83
2022/09/24 08:10:46;;;;;;;5.57;4.97;;;14.60;80.30;;;;;;5052610;28;20112;-83
2022/09/24 08:13:12;;;;;;;5.30;4.80;;;14.50;80.10;;;;;;5034851;28;20447;-83
2022/09/24 08:15:38;;;;;;;5.45;4.40;;;14.50;80.40;;;;;;5034963;28;20033;-83
2022/09/24 08:18:04;;;;;;;5.25;4.65;;;14.50;80.60;;;;;;5035948;28;20037;-83
2022/09/24 08:20:32;;;;;;;5.35;4.82;;;14.50;80.70;;;;;;5053097;28;20482;-84
2022/09/24 08:23:01;;;;;;;4.43;3.78;;;14.60;80.90;;;;;;5037411;28;20056;-83
2022/09/24 08:25:27;;;;;;;5.47;4.78;;;14.70;81.50;;;;;;5034767;28;20396;-84
2022/09/24 08:27:53;;;;;;;4.53;3.97;;;14.70;80.50;;;;;;5031159;28;20035;-84
2022/09/24 08:30:20;;;;;;;5.22;4.45;;;14.70;80.40;;;;;;5034829;28;20079;-84
2022/09/24 08:32:49;;;;;;;5.30;4.60;;;14.80;80.30;;;;;;5032103;28;20039;-83
2022/09/24 08:35:15;;;;;;;5.38;4.75;;;14.80;80.20;;;;;;5034557;28;20523;-84
2022/09/24 08:37:40;;;;;;;5.65;4.97;;;14.80;79.80;;;;;;5052499;28;20056;-83
2022/09/24 08:40:14;;;;;;;6.45;4.70;;;14.80;79.60;;;;;;5035399;28;20462;-83
2022/09/24 08:42:54;;;;;;;5.40;4.85;;;14.80;79.40;;;;;;5032864;28;20091;-83
2022/09/24 08:48:19;;;;;;;5.47;4.60;;;14.80;79.30;;;;;;5052284;28;20071;-83
2022/09/24 08:50:59;;;;;;;5.95;5.00;;;14.70;78.90;;;;;;5029143;28;20028;-83
2022/09/24 08:53:30;;;;;;;5.97;5.03;;;14.70;78.70;;;;;;5035296;28;20025;-83
2022/09/24 08:55:59;;;;;;;6.00;5.18;;;14.60;78.80;;;;;;5022207;28;20262;-83
2022/09/24 08:58:38;;;;;;;5.63;4.93;;;14.50;79.10;;;;;;5035151;28;20392;-83
2022/09/24 09:01:06;;;;;;;5.43;4.60;;;14.50;79.20;;;;;;5032633;28;20049;-83
2022/09/24 09:03:55;;;;;;;4.95;4.00;;;14.50;79.40;;;;;;5032045;28;20028;-83
2022/09/24 09:06:50;;;;;;;5.70;4.38;;;14.60;79.50;;;;;;5033760;28;20029;-83
2022/09/24 09:09:31;;;;;;;4.78;4.13;;;14.70;79.50;;;;;;5050740;28;20017;-83
2022/09/24 09:12:03;;;;;;;5.00;4.50;;;14.70;79.30;;;;;;5052966;28;20049;-84
2022/09/24 09:14:29;;;;;;;4.55;4.10;;;14.80;78.80;;;;;;5023605;28;20033;-83
2022/09/24 09:17:01;;;;;;;5.45;4.68;;;14.80;78.60;;;;;;5030201;28;20115;-84
2022/09/24 09:19:32;;;;;;;5.30;4.57;;;14.80;78.10;;;;;;5035587;28;20339;-83
2022/09/24 09:22:11;;;;;;;4.50;3.85;;;14.80;77.90;;;;;;5034978;28;20056;-83
2022/09/24 09:24:50;;;;;;;5.45;4.47;;;14.80;77.90;;;;;;5034627;28;20025;-84
2022/09/24 09:27:17;;;;;;;4.53;4.03;;;14.70;77.80;;;;;;5033484;28;20018;-84
2022/09/24 09:29:54;;;;;;;5.25;4.20;;;14.70;77.90;;;;;;5034287;28;20028;-83
2022/09/24 09:32:43;;;;;;;4.63;4.13;;;14.80;77.70;;;;;;5043052;28;20043;-84
2022/09/24 09:35:18;;;;;;;4.55;4.03;;;14.70;77.70;;;;;;5033804;28;20039;-84
2022/09/24 09:37:54;;;;;;;4.78;4.28;;;14.70;77.80;;;;;;5034470;28;20025;-83
2022/09/24 09:40:29;;;;;;;4.80;4.32;;;14.80;77.90;;;;;;5021781;28;20017;-83
2022/09/24 09:43:03;;;;;;;4.22;3.65;;;14.80;78.00;;;;;;5033549;28;20061;-83
2022/09/24 09:45:41;;;;;;;4.45;4.05;;;14.80;77.80;;;;;;5034025;28;20545;-83
2022/09/24 09:48:13;;;;;;;5.38;4.05;;;14.90;77.80;;;;;;5016981;28;20028;-83
2022/09/24 09:50:45;;;;;;;4.90;3.95;;;14.90;78.00;;;;;;5022100;28;20032;-83
2022/09/24 09:53:25;;;;;;;4.40;4.00;;;15.00;77.80;;;;;;5048101;28;20314;-83
2022/09/24 09:56:00;;;;;;;5.18;4.20;;;15.10;77.10;;;;;;5048075;28;20059;-84
2022/09/24 09:58:27;;;;;;;5.43;4.15;;;15.20;76.90;;;;;;5034880;28;20056;-83
2022/09/24 10:01:03;;;;;;;4.82;3.78;;;15.20;76.80;;;;;;5034633;28;20025;-83
2022/09/24 10:03:32;;;;;;;4.32;3.92;;;15.30;76.70;;;;;;5050829;28;20090;-83
2022/09/24 10:06:05;;;;;;;3.85;3.45;;;15.30;76.70;;;;;;5035683;28;20498;-83
2022/09/24 10:08:30;;;;;;;4.30;3.85;;;15.40;76.50;;;;;;5053288;28;20027;-83
2022/09/24 10:11:01;;;;;;;4.38;3.67;;;15.40;76.30;;;;;;5037496;28;20123;-84
2022/09/24 10:13:27;;;;;;;4.43;3.72;;;15.40;76.60;;;;;;5054490;28;20053;-84
2022/09/24 10:15:59;;;;;;;4.28;3.70;;;15.40;75.80;;;;;;5038112;28;20119;-83
2022/09/24 10:18:33;;;;;;;4.65;4.18;;;15.40;75.50;;;;;;5029880;28;20030;-83
2022/09/24 10:21:02;;;;;;;5.65;4.40;;;15.40;75.40;;;;;;5055000;28;20388;-83
2022/09/24 10:23:42;;;;;;;4.20;3.78;;;15.40;75.00;;;;;;5037242;28;20067;-83
2022/09/24 10:26:09;;;;;;;3.75;3.35;;;15.40;74.70;;;;;;5036168;28;20025;-83
2022/09/24 10:31:37;;;;;;;4.90;3.75;;;15.30;75.10;;;;;;5052866;28;20044;-83
2022/09/24 10:34:17;;;;;;;4.28;3.88;;;15.40;74.70;;;;;;5037912;28;20124;-83
2022/09/24 10:36:57;;;;;;;3.78;3.40;;;15.40;74.20;;;;;;5037215;28;20472;-83
2022/09/24 10:39:23;;;;;;;3.60;3.30;;;15.40;74.20;;;;;;5037301;28;20123;-83
2022/09/24 10:41:55;;;;;;;4.82;3.65;;;15.40;74.10;;;;;;5037775;28;20124;-82
2022/09/24 10:44:21;;;;;;;4.93;3.35;;;15.50;74.00;;;;;;5034555;28;20021;-83
2022/09/24 10:47:22;;;;;;;5.25;3.50;;;15.50;73.60;;;;;;5037529;28;20048;-82
2022/09/24 10:50:12;;;;;;;3.70;3.30;;;15.50;73.30;;;;;;5036894;28;20020;-82
2022/09/24 10:52:50;;;;;;;3.47;2.92;;;15.60;73.40;;;;;;5055251;28;20028;-83
2022/09/24 10:55:34;;;;;;;3.00;2.70;;;15.60;73.10;;;;;;5037428;28;20031;-83
2022/09/24 10:58:45;;;;;;;3.33;3.03;;;15.70;72.30;;;;;;5034967;28;20029;-83
2022/09/24 11:01:15;;;;;;;3.83;3.42;;;15.70;72.00;;;;;;5035859;28;20020;-83
2022/09/24 11:03:46;;;;;;;3.92;3.33;;;15.70;72.10;;;;;;5033831;28;20544;-83
2022/09/24 11:06:24;;;;;;;2.70;2.50;;;15.70;72.20;;;;;;5034976;28;20048;-83
2022/09/24 11:09:01;;;;;;;3.00;2.72;;;15.70;72.20;;;;;;5052164;28;20029;-83
2022/09/24 11:11:30;;;;;;;3.38;3.08;;;15.80;72.30;;;;;;5041258;28;20056;-83
2022/09/24 11:14:17;;;;;;;3.65;3.35;;;15.80;72.30;;;;;;5034581;28;20036;-83
2022/09/24 11:17:03;;;;;;;3.67;3.00;;;15.90;72.00;;;;;;5054855;28;20040;-84
2022/09/24 11:19:51;;;;;;;3.40;3.10;;;15.90;70.80;;;;;;5049471;28;20037;-83
2022/09/24 11:22:53;;;;;;;3.35;3.05;;;15.80;69.80;;;;;;5054901;28;20037;-83
2022/09/24 11:25:46;;;;;;;2.90;2.70;;;15.70;69.60;;;;;;5025281;28;20033;-83
2022/09/24 11:28:37;;;;;;;3.80;3.30;;;15.60;70.00;;;;;;5029253;28;20167;-84
2022/09/24 11:32:07;;;;;;;3.47;3.05;;;15.50;69.90;;;;;;5013702;28;20091;-83
2022/09/24 11:34:35;;;;;;;3.72;3.38;;;15.30;69.90;;;;;;4970132;28;20039;-83
2022/09/24 11:37:45;;;;;;;3.33;3.03;;;15.30;70.40;;;;;;4971334;28;20069;-83
2022/09/24 11:40:26;;;;;;;2.95;2.70;;;15.20;70.60;;;;;;5039568;28;20060;-83
2022/09/24 11:43:17;;;;;;;2.80;2.55;;;15.10;70.50;;;;;;5036537;28;20028;-83
2022/09/24 11:46:08;;;;;;;2.05;1.92;;;15.10;70.00;;;;;;5032197;28;20036;-83
2022/09/24 11:48:53;;;;;;;2.20;2.00;;;15.00;70.00;;;;;;5030361;28;20411;-83
2022/09/24 11:51:40;;;;;;;1.40;1.35;;;14.90;70.20;;;;;;5036240;28;20021;-83
2022/09/24 11:54:42;;;;;;;1.73;1.63;;;14.80;70.30;;;;;;5035073;28;20054;-84
2022/09/24 11:57:34;;;;;;;;;;;14.80;70.30;;;;;;5035072;28;20025;-83
2022/09/24 12:00:03;;;;;;;;;;;14.80;70.20;;;;;;5047265;28;19991;-83
2022/09/24 12:02:35;;;;;;;2.05;1.85;;;14.70;70.20;;;;;;5034576;28;19918;-84
2022/09/24 12:05:25;;;;;;;1.38;1.30;;;14.80;70.50;;;;;;5036107;28;20029;-83
2022/09/24 12:07:57;;;;;;;1.52;1.42;;;14.80;70.20;;;;;;5052553;28;20373;-84
2022/09/24 12:10:34;;;;;;;1.02;1.02;;;14.80;70.10;;;;;;5051943;28;20099;-83
2022/09/24 12:13:26;;;;;;;1.35;1.25;;;14.80;70.00;;;;;;5046793;28;20140;-83
2022/09/24 12:15:59;;;;;;;1.60;1.50;;;14.80;69.70;;;;;;5035832;28;20025;-83
2022/09/24 12:18:49;;;;;;;1.67;1.58;;;14.80;70.00;;;;;;5053365;28;20033;-83
2022/09/24 12:21:25;;;;;;;2.53;1.95;;;14.70;70.00;;;;;;5036149;28;20036;-83
2022/09/24 12:23:53;;;;;;;2.03;1.92;;;14.70;70.00;;;;;;5035341;28;20035;-83
2022/09/24 12:26:22;;;;;;;1.50;1.40;;;14.70;70.30;;;;;;5033836;28;20104;-83
2022/09/24 12:35:29;;;;;;;2.30;2.10;;;14.80;70.60;;;;;;5053295;28;20526;-83
2022/09/24 12:38:07;;;;;;;2.28;2.08;;;14.80;70.20;;;;;;5022386;28;20029;-84
2022/09/24 12:40:44;;;;;;;1.63;1.52;;;14.80;70.10;;;;;;5035412;28;20025;-84
2022/09/24 12:43:37;;;;;;;1.75;1.65;;;14.80;70.00;;;;;;5034886;28;20025;-83
2022/09/24 12:46:08;;;;;;;2.05;1.85;;;14.90;69.80;;;;;;5034476;28;20018;-83
2022/09/24 12:48:37;;;;;;;1.60;1.50;;;15.00;69.80;;;;;;5034002;28;20017;-82
2022/09/24 12:51:05;;;;;;;2.30;1.77;;;15.00;69.80;;;;;;5052805;28;20044;-83
2022/09/24 12:53:40;;;;;;;2.22;1.88;;;15.00;69.50;;;;;;5034255;28;20032;-83
2022/09/24 12:56:08;;;;;;;1.48;1.38;;;15.00;69.40;;;;;;5050928;28;20510;-83
2022/09/24 12:58:44;;;;;;;1.60;1.50;;;15.00;69.60;;;;;;5030520;28;20388;-83
2022/09/24 13:01:24;;;;;;;1.50;1.40;;;15.00;69.40;;;;;;5033676;28;20017;-83
2022/09/24 13:04:25;;;;;;;2.10;1.90;;;15.00;69.70;;;;;;5033906;28;20033;-83
2022/09/24 13:06:51;;;;;;;;;;;15.10;69.80;;;;;;5035220;28;20028;-83
2022/09/24 13:09:43;;;;;;;1.58;1.48;;;15.00;69.80;;;;;;5038707;28;19913;-83
2022/09/24 13:12:21;;;;;;;1.52;1.45;;;15.10;70.10;;;;;;5047587;28;20052;-83
2022/09/24 13:14:57;;;;;;;1.73;1.50;;;15.10;70.20;;;;;;5049559;28;20063;-83
2022/09/24 13:17:23;;;;;;;1.50;1.40;;;15.20;70.30;;;;;;5028914;28;20029;-83
2022/09/24 13:19:56;;;;;;;1.65;1.55;;;15.20;70.50;;;;;;5034585;28;20024;-83
2022/09/24 13:22:27;;;;;;;1.50;1.40;;;15.20;70.60;;;;;;5052746;28;20511;-84
2022/09/24 13:25:09;;;;;;;1.60;1.50;;;15.20;70.70;;;;;;5031775;28;20021;-83
2022/09/24 13:27:37;;;;;;;1.50;1.40;;;15.20;70.90;;;;;;5052409;28;20071;-83
2022/09/24 13:30:21;;;;;;;1.27;1.27;;;15.20;70.80;;;;;;5023668;28;20474;-83
2022/09/24 13:33:30;;;;;;;1.30;1.20;;;15.20;70.70;;;;;;5053044;28;20080;-83